Time;durP1;ratioP1;P1;durP2;ratioP2;P2;SDS_P1;SDS_P2;PMS_P1;PMS_P2;Temp;Humidity;BMP_temperature;BMP_pressure;BME280_temperature;BME280_humidity;BME280_pressure;Samples;Min_cycle;Max_cycle;Signal;HPM_P1;HPM_P2
2021/07/27 00:01:24;;;;;;;;;49.33;42.33;;;;;;;;8797299;40;10484;-58
2021/07/27 00:07:27;;;;;;;;;58.67;48.67;;;;;;;;8796397;40;9828;-59
2021/07/27 00:13:30;;;;;;;;;53.00;44.33;;;;;;;;8796531;40;9943;-58
2021/07/27 00:19:32;;;;;;;;;49.67;43.00;;;;;;;;8797101;40;10336;-58
2021/07/27 00:25:34;;;;;;;;;55.00;45.00;;;;;;;;8797780;40;9871;-59
2021/07/27 00:31:36;;;;;;;;;60.67;48.33;;;;;;;;8787887;40;11006;-58
2021/07/27 00:37:43;;;;;;;;;59.67;51.00;;;;;;;;8796355;40;10351;-59
2021/07/27 00:43:46;;;;;;;;;55.33;48.33;;;;;;;;8797208;40;10491;-58
2021/07/27 00:49:50;;;;;;;;;57.33;46.67;;;;;;;;8795810;40;10395;-57
2021/07/27 00:55:53;;;;;;;;;55.67;46.00;;;;;;;;8796051;40;9857;-58
2021/07/27 01:01:56;;;;;;;;;44.67;39.33;;;;;;;;8795997;40;9824;-59
2021/07/27 01:07:58;;;;;;;;;47.33;40.00;;;;;;;;8794982;40;9877;-59
2021/07/27 01:14:01;;;;;;;;;43.00;40.33;;;;;;;;8796400;40;9907;-59
2021/07/27 01:20:11;;;;;;;;;49.00;39.00;;;;;;;;8795183;40;9877;-59
2021/07/27 01:39:06;;;;;;;;;45.67;38.67;;;;;;;;8795541;40;9891;-59
2021/07/27 01:45:12;;;;;;;;;41.33;35.67;;;;;;;;8794826;40;10305;-58
2021/07/27 01:51:16;;;;;;;;;48.33;38.33;;;;;;;;8795445;40;9875;-58
2021/07/27 01:57:19;;;;;;;;;33.33;32.33;;;;;;;;8794671;40;9972;-58
2021/07/27 02:03:23;;;;;;;;;38.67;36.33;;;;;;;;8794349;40;9903;-58
2021/07/27 02:09:32;;;;;;;;;38.00;35.00;;;;;;;;8794527;40;9885;-59
2021/07/27 02:15:38;;;;;;;;;37.00;34.33;;;;;;;;8795084;40;10506;-58
2021/07/27 02:21:40;;;;;;;;;38.67;36.33;;;;;;;;8798984;40;9920;-58
2021/07/27 02:27:43;;;;;;;;;34.00;33.33;;;;;;;;8799066;40;10420;-59
2021/07/27 02:33:45;;;;;;;;;40.67;38.00;;;;;;;;8797941;40;9853;-58
2021/07/27 02:39:47;;;;;;;;;43.00;37.67;;;;;;;;8798291;40;10593;-58
2021/07/27 02:45:49;;;;;;;;;38.00;35.33;;;;;;;;8798393;40;10078;-58
2021/07/27 02:51:52;;;;;;;;;41.67;40.67;;;;;;;;8798724;40;9895;-58
2021/07/27 02:57:54;;;;;;;;;41.00;35.00;;;;;;;;8797668;40;9887;-58
2021/07/27 03:03:56;;;;;;;;;41.33;37.67;;;;;;;;8797863;40;9829;-58
2021/07/27 03:10:17;;;;;;;;;43.33;39.33;;;;;;;;8798123;40;9844;-58
2021/07/27 03:16:22;;;;;;;;;43.67;38.00;;;;;;;;8796648;40;10465;-58
2021/07/27 03:22:24;;;;;;;;;40.00;37.33;;;;;;;;8796765;40;9801;-58
2021/07/27 03:28:27;;;;;;;;;38.33;36.67;;;;;;;;8798139;40;9855;-59
2021/07/27 03:34:29;;;;;;;;;37.00;34.67;;;;;;;;8787355;40;10226;-59
2021/07/27 03:40:35;;;;;;;;;32.67;31.33;;;;;;;;8797765;40;9871;-59
2021/07/27 03:46:52;;;;;;;;;41.00;38.00;;;;;;;;8797391;40;9870;-59
2021/07/27 03:52:54;;;;;;;;;48.33;43.67;;;;;;;;8797741;40;9913;-59
2021/07/27 03:58:56;;;;;;;;;33.67;32.67;;;;;;;;8796533;40;9990;-59
2021/07/27 04:04:58;;;;;;;;;46.67;39.33;;;;;;;;9854658;23;9858;-58
2021/07/27 04:11:02;;;;;;;;;38.00;35.67;;;;;;;;8849456;40;10014;-58
2021/07/27 04:17:04;;;;;;;;;42.33;38.33;;;;;;;;8848917;40;9828;-58
2021/07/27 04:23:07;;;;;;;;;38.33;35.67;;;;;;;;8848335;40;11131;-59
2021/07/27 04:29:09;;;;;;;;;35.00;32.67;;;;;;;;8849176;40;10205;-58
2021/07/27 04:35:11;;;;;;;;;43.33;39.33;;;;;;;;8847727;40;9869;-58
2021/07/27 04:41:13;;;;;;;;;47.67;38.00;;;;;;;;8848557;40;9816;-58
2021/07/27 04:47:15;;;;;;;;;38.33;35.00;;;;;;;;8847946;40;9852;-58
2021/07/27 04:53:23;;;;;;;;;37.67;35.33;;;;;;;;8848751;40;10117;-59
2021/07/27 04:59:25;;;;;;;;;38.33;34.67;;;;;;;;8839874;40;10365;-58
2021/07/27 05:05:27;;;;;;;;;47.33;38.67;;;;;;;;8829830;40;10579;-58
2021/07/27 05:11:29;;;;;;;;;41.67;35.00;;;;;;;;8825150;40;10213;-58
2021/07/27 05:17:38;;;;;;;;;41.67;40.67;;;;;;;;8823214;40;10199;-58
2021/07/27 05:23:40;;;;;;;;;38.75;35.25;;;;;;;;8823442;40;10616;-57
2021/07/27 05:29:42;;;;;;;;;34.75;33.50;;;;;;;;8808026;40;10730;-58
2021/07/27 05:35:46;;;;;;;;;34.75;32.50;;;;;;;;8819322;40;10587;-59
2021/07/27 05:41:48;;;;;;;;;40.25;36.75;;;;;;;;8818476;40;10777;-58
2021/07/27 05:47:51;;;;;;;;;41.75;36.75;;;;;;;;8814603;40;10883;-58
2021/07/27 05:53:53;;;;;;;;;36.25;34.50;;;;;;;;8819479;40;10650;-57
2021/07/27 05:59:55;;;;;;;;;30.75;30.00;;;;;;;;8823535;40;10573;-58
2021/07/27 06:05:57;;;;;;;;;28.00;25.75;;;;;;;;8822140;40;10596;-58
2021/07/27 06:11:59;;;;;;;;;38.50;35.00;;;;;;;;8824050;40;10387;-59
2021/07/27 06:18:01;;;;;;;;;32.00;31.50;;;;;;;;8823923;40;10540;-58
2021/07/27 06:24:04;;;;;;;;;34.75;32.50;;;;;;;;8820700;40;10556;-59
2021/07/27 06:30:09;;;;;;;;;39.50;34.50;;;;;;;;8815676;40;10655;-59
2021/07/27 06:36:12;;;;;;;;;39.25;35.75;;;;;;;;8812553;40;10712;-58
2021/07/27 06:42:14;;;;;;;;;31.25;30.25;;;;;;;;8810095;40;10358;-58
2021/07/27 06:48:17;;;;;;;;;23.25;22.25;;;;;;;;8820414;40;10366;-59
2021/07/27 06:54:19;;;;;;;;;22.50;21.75;;;;;;;;8817266;40;10342;-62
2021/07/27 07:00:22;;;;;;;;;19.75;17.75;;;;;;;;8813889;40;10483;-63
2021/07/27 07:06:24;;;;;;;;;30.25;27.75;;;;;;;;8817389;40;12133;-58
2021/07/27 07:12:26;;;;;;;;;53.00;43.75;;;;;;;;8815199;40;10547;-58
2021/07/27 07:18:28;;;;;;;;;48.75;40.50;;;;;;;;8817966;40;10438;-58
2021/07/27 07:24:30;;;;;;;;;28.00;23.75;;;;;;;;8811703;40;10658;-58
2021/07/27 07:30:35;;;;;;;;;25.00;21.25;;;;;;;;8814993;40;10605;-58
2021/07/27 07:36:38;;;;;;;;;22.25;21.50;;;;;;;;8809393;40;10397;-58
2021/07/27 07:42:40;;;;;;;;;21.75;21.50;;;;;;;;8819464;40;10964;-58
2021/07/27 07:48:42;;;;;;;;;18.25;16.00;;;;;;;;8820383;40;10508;-58
2021/07/27 07:54:45;;;;;;;;;20.00;18.75;;;;;;;;8819865;40;10529;-57
2021/07/27 08:00:49;;;;;;;;;22.25;21.00;;;;;;;;8819728;40;10705;-57
2021/07/27 08:06:53;;;;;;;;;25.00;18.75;;;;;;;;8814634;40;10376;-57
2021/07/27 08:12:55;;;;;;;;;22.75;19.75;;;;;;;;8815366;40;10355;-57
2021/07/27 08:19:00;;;;;;;;;18.00;18.00;;;;;;;;8815833;40;10320;-58
2021/07/27 08:25:02;;;;;;;;;18.75;18.75;;;;;;;;8807301;40;10495;-56
2021/07/27 08:31:06;;;;;;;;;20.50;20.50;;;;;;;;8814523;40;11227;-59
2021/07/27 08:37:09;;;;;;;;;20.25;19.25;;;;;;;;8806130;40;10562;-58
2021/07/27 08:43:13;;;;;;;;;22.25;20.50;;;;;;;;8816151;40;10561;-59
2021/07/27 08:49:16;;;;;;;;;19.75;19.75;;;;;;;;8804586;40;10489;-58
2021/07/27 08:55:18;;;;;;;;;27.75;26.25;;;;;;;;8807807;40;10329;-58
2021/07/27 09:01:24;;;;;;;;;17.25;17.25;;;;;;;;8816712;40;10373;-58
2021/07/27 09:07:26;;;;;;;;;18.50;17.00;;;;;;;;8811804;40;10333;-57
2021/07/27 09:13:33;;;;;;;;;17.00;17.00;;;;;;;;8810897;40;10522;-57
2021/07/27 09:19:43;;;;;;;;;23.00;22.00;;;;;;;;8812658;40;10530;-58
2021/07/27 09:25:55;;;;;;;;;20.75;20.75;;;;;;;;8802315;40;10344;-58
2021/07/27 09:31:59;;;;;;;;;21.00;18.50;;;;;;;;8802123;40;10585;-59
2021/07/27 09:38:31;;;;;;;;;27.00;25.00;;;;;;;;8801515;40;10431;-62
2021/07/27 09:44:35;;;;;;;;;23.75;22.25;;;;;;;;8807176;40;10600;-57
2021/07/27 09:50:38;;;;;;;;;22.25;19.75;;;;;;;;8799792;40;10950;-58
2021/07/27 09:56:43;;;;;;;;;20.50;20.00;;;;;;;;8803429;40;10531;-58
2021/07/27 10:02:47;;;;;;;;;19.25;17.75;;;;;;;;8812306;40;10578;-59
2021/07/27 10:08:54;;;;;;;;;21.25;20.00;;;;;;;;8814777;40;10597;-57
2021/07/27 10:14:56;;;;;;;;;21.50;21.00;;;;;;;;8816619;40;10776;-59
2021/07/27 10:21:23;;;;;;;;;17.25;16.25;;;;;;;;8816625;40;10581;-58
2021/07/27 10:27:25;;;;;;;;;19.25;18.75;;;;;;;;8813730;40;10827;-58
2021/07/27 10:33:31;;;;;;;;;21.75;19.75;;;;;;;;8817089;40;10324;-57
2021/07/27 10:39:44;;;;;;;;;17.75;17.75;;;;;;;;8810271;40;11179;-59
2021/07/27 10:45:57;;;;;;;;;22.50;21.00;;;;;;;;8813131;40;10803;-58
2021/07/27 10:52:02;;;;;;;;;28.00;27.00;;;;;;;;8817485;40;10522;-57
2021/07/27 10:58:19;;;;;;;;;22.75;21.25;;;;;;;;8805496;40;10518;-58
2021/07/27 11:04:31;;;;;;;;;19.50;19.50;;;;;;;;8810984;40;10553;-58
2021/07/27 11:10:33;;;;;;;;;19.25;19.00;;;;;;;;8813014;40;10649;-58
2021/07/27 11:16:42;;;;;;;;;21.75;20.25;;;;;;;;8809629;40;10467;-59
2021/07/27 11:22:47;;;;;;;;;21.50;21.00;;;;;;;;8821583;40;10359;-58
2021/07/27 11:28:49;;;;;;;;;24.75;19.25;;;;;;;;8813435;40;10566;-57
2021/07/27 11:34:56;;;;;;;;;23.00;20.50;;;;;;;;8797362;40;10350;-57
2021/07/27 11:41:10;;;;;;;;;27.25;27.00;;;;;;;;8807302;40;10606;-57
2021/07/27 11:47:12;;;;;;;;;24.50;22.00;;;;;;;;8818697;40;10453;-57
2021/07/27 11:53:23;;;;;;;;;22.00;22.00;;;;;;;;8821399;40;10599;-57
2021/07/27 11:59:28;;;;;;;;;22.75;22.25;;;;;;;;8822006;40;10237;-57
2021/07/27 12:05:31;;;;;;;;;25.75;22.25;;;;;;;;8821716;40;10330;-58
2021/07/27 12:11:33;;;;;;;;;21.75;20.50;;;;;;;;8812873;40;10368;-56
2021/07/27 12:17:35;;;;;;;;;24.25;21.75;;;;;;;;8817425;40;10394;-57
2021/07/27 12:23:38;;;;;;;;;23.25;21.25;;;;;;;;8808499;40;10343;-58
2021/07/27 12:29:40;;;;;;;;;23.50;22.25;;;;;;;;8813708;40;10613;-58
2021/07/27 12:35:43;;;;;;;;;25.25;25.25;;;;;;;;8808371;40;10390;-58
2021/07/27 12:41:45;;;;;;;;;22.00;22.00;;;;;;;;8803235;40;11075;-58
2021/07/27 12:47:48;;;;;;;;;22.25;21.50;;;;;;;;8800221;40;10950;-57
2021/07/27 12:53:51;;;;;;;;;26.00;24.75;;;;;;;;8819208;40;10273;-57
2021/07/27 12:59:53;;;;;;;;;21.50;18.25;;;;;;;;8803696;40;10792;-56
2021/07/27 13:05:55;;;;;;;;;20.00;20.00;;;;;;;;8819424;40;10518;-57
2021/07/27 13:11:57;;;;;;;;;19.50;17.50;;;;;;;;8817187;40;10332;-58
2021/07/27 13:17:59;;;;;;;;;21.00;19.75;;;;;;;;8819639;40;10325;-56
2021/07/27 13:24:05;;;;;;;;;24.25;22.25;;;;;;;;8819250;40;10381;-58
2021/07/27 13:30:08;;;;;;;;;21.25;19.00;;;;;;;;8818141;40;10384;-58
2021/07/27 13:36:10;;;;;;;;;22.50;22.50;;;;;;;;8819236;40;10537;-58
2021/07/27 13:42:12;;;;;;;;;23.50;20.00;;;;;;;;8801447;40;11103;-57
2021/07/27 13:48:14;;;;;;;;;19.50;19.50;;;;;;;;8812653;40;10343;-59
2021/07/27 13:54:16;;;;;;;;;23.25;21.75;;;;;;;;8816777;40;10378;-59
2021/07/27 14:00:20;;;;;;;;;22.25;20.50;;;;;;;;8817278;40;10292;-58
2021/07/27 14:06:22;;;;;;;;;19.25;19.00;;;;;;;;8819579;40;10346;-57
2021/07/27 14:12:24;;;;;;;;;23.00;22.00;;;;;;;;8820735;40;10529;-57
2021/07/27 14:18:27;;;;;;;;;25.25;18.00;;;;;;;;8824937;40;10348;-57
2021/07/27 14:24:29;;;;;;;;;21.50;20.25;;;;;;;;8817801;40;10970;-59
2021/07/27 14:30:32;;;;;;;;;22.00;21.50;;;;;;;;8822212;40;12087;-58
2021/07/27 14:36:35;;;;;;;;;28.50;24.00;;;;;;;;8819413;40;10544;-60
2021/07/27 14:42:37;;;;;;;;;30.75;25.50;;;;;;;;8820839;40;10382;-59
2021/07/27 14:48:43;;;;;;;;;25.25;21.75;;;;;;;;8821179;40;11119;-58
2021/07/27 14:54:45;;;;;;;;;21.25;21.25;;;;;;;;8822090;40;10335;-59
2021/07/27 15:00:47;;;;;;;;;21.25;20.25;;;;;;;;8821630;40;10616;-58
2021/07/27 15:06:49;;;;;;;;;22.50;19.50;;;;;;;;8821629;40;10391;-59
2021/07/27 15:12:53;;;;;;;;;25.50;25.50;;;;;;;;8822014;40;11211;-57
2021/07/27 15:18:55;;;;;;;;;20.50;17.00;;;;;;;;8821569;40;10365;-59
2021/07/27 15:25:00;;;;;;;;;20.50;20.50;;;;;;;;8821364;40;10429;-59
2021/07/27 15:31:02;;;;;;;;;21.00;20.00;;;;;;;;8821490;40;10367;-58
2021/07/27 15:37:04;;;;;;;;;27.25;25.75;;;;;;;;8822733;40;10706;-58
2021/07/27 15:43:07;;;;;;;;;24.25;22.75;;;;;;;;8821349;40;10920;-58
2021/07/27 15:49:09;;;;;;;;;21.50;21.50;;;;;;;;8822588;40;10347;-59
2021/07/27 15:55:12;;;;;;;;;19.00;19.00;;;;;;;;8811929;40;10361;-58
2021/07/27 16:01:14;;;;;;;;;20.50;20.50;;;;;;;;8821138;40;10308;-58
2021/07/27 16:07:16;;;;;;;;;22.25;22.00;;;;;;;;8821081;40;10996;-58
2021/07/27 16:13:18;;;;;;;;;31.25;27.75;;;;;;;;8821283;40;10326;-58
2021/07/27 16:19:21;;;;;;;;;25.50;21.75;;;;;;;;8820580;40;10327;-57
2021/07/27 16:25:23;;;;;;;;;22.75;20.00;;;;;;;;8820913;40;10449;-58
2021/07/27 16:31:25;;;;;;;;;19.50;19.50;;;;;;;;8820545;40;10311;-58
2021/07/27 16:37:27;;;;;;;;;25.00;24.00;;;;;;;;8819838;40;10300;-60
2021/07/27 16:43:30;;;;;;;;;59.25;49.50;;;;;;;;8820294;40;10344;-59
2021/07/27 16:49:33;;;;;;;;;34.50;28.50;;;;;;;;8819803;40;10363;-58
2021/07/27 16:55:35;;;;;;;;;31.00;27.25;;;;;;;;8821053;40;10558;-57
2021/07/27 17:01:37;;;;;;;;;31.00;31.00;;;;;;;;8819954;40;10573;-59
2021/07/27 17:07:41;;;;;;;;;36.50;31.50;;;;;;;;8819963;40;10356;-58
2021/07/27 17:13:43;;;;;;;;;27.00;23.25;;;;;;;;8820217;40;10351;-58
2021/07/27 17:19:45;;;;;;;;;30.75;27.25;;;;;;;;8819866;40;11488;-59
2021/07/27 17:25:47;;;;;;;;;28.50;28.50;;;;;;;;8820086;40;10420;-58
2021/07/27 17:31:49;;;;;;;;;28.25;26.25;;;;;;;;8819468;40;10305;-58
2021/07/27 17:37:52;;;;;;;;;31.00;28.80;;;;;;;;8330947;40;10002190;-57
2021/07/27 17:43:54;;;;;;;;;33.75;31.00;;;;;;;;8801267;40;10804;-58
2021/07/27 17:49:58;;;;;;;;;34.00;29.75;;;;;;;;8797745;40;10575;-58
2021/07/27 17:56:00;;;;;;;;;30.25;28.75;;;;;;;;8799449;40;10908;-58
2021/07/27 18:02:02;;;;;;;;;24.00;23.00;;;;;;;;8799958;40;10568;-58
2021/07/27 18:08:05;;;;;;;;;27.50;25.75;;;;;;;;8822924;40;10585;-58
2021/07/27 18:14:08;;;;;;;;;23.00;21.50;;;;;;;;8822804;40;11045;-58
2021/07/27 18:20:25;;;;;;;;;32.75;30.50;;;;;;;;8822252;40;11398;-57
2021/07/27 18:26:27;;;;;;;;;27.25;27.25;;;;;;;;8334661;40;10000723;-58
2021/07/27 18:32:30;;;;;;;;;26.25;26.25;;;;;;;;8825598;40;14730;-60
2021/07/27 18:38:33;;;;;;;;;40.25;31.75;;;;;;;;8824041;40;10844;-58
2021/07/27 18:44:37;;;;;;;;;40.25;37.75;;;;;;;;8822404;40;10595;-57
2021/07/27 18:50:39;;;;;;;;;35.50;31.50;;;;;;;;8821961;40;10509;-57
2021/07/27 18:56:41;;;;;;;;;33.50;32.00;;;;;;;;8821975;40;10498;-58
2021/07/27 19:02:43;;;;;;;;;36.50;33.25;;;;;;;;8822602;40;10800;-59
2021/07/27 19:08:45;;;;;;;;;40.25;37.00;;;;;;;;8823112;40;11196;-58
2021/07/27 19:14:47;;;;;;;;;42.00;38.00;;;;;;;;8821649;40;11365;-58
2021/07/27 19:20:54;;;;;;;;;34.25;33.50;;;;;;;;8821359;40;10624;-57
2021/07/27 19:26:56;;;;;;;;;34.75;31.50;;;;;;;;8821512;40;10576;-57
2021/07/27 19:32:59;;;;;;;;;36.75;34.50;;;;;;;;8821488;40;11145;-58
2021/07/27 19:39:01;;;;;;;;;34.00;32.25;;;;;;;;8821615;40;11069;-57
2021/07/27 19:45:16;;;;;;;;;34.75;34.25;;;;;;;;8821207;40;10557;-59
2021/07/27 19:51:18;;;;;;;;;37.00;34.75;;;;;;;;8821362;40;10980;-57
2021/07/27 19:57:20;;;;;;;;;30.00;30.00;;;;;;;;8821053;40;10516;-58
2021/07/27 20:03:22;;;;;;;;;30.75;29.75;;;;;;;;8820858;40;10710;-58
2021/07/27 20:09:25;;;;;;;;;34.75;33.50;;;;;;;;8819984;40;10583;-57
2021/07/27 20:15:27;;;;;;;;;35.75;32.25;;;;;;;;8821754;40;10714;-58
2021/07/27 20:21:29;;;;;;;;;33.75;32.50;;;;;;;;8820837;40;10565;-58
2021/07/27 20:27:32;;;;;;;;;33.75;30.25;;;;;;;;8819251;40;10707;-58
2021/07/27 20:33:34;;;;;;;;;31.50;30.00;;;;;;;;8820754;40;10636;-57
2021/07/27 20:39:36;;;;;;;;;37.75;32.50;;;;;;;;8820295;40;10749;-58
2021/07/27 20:45:38;;;;;;;;;34.25;31.75;;;;;;;;8821123;40;10630;-58
2021/07/27 20:51:42;;;;;;;;;31.00;29.50;;;;;;;;8820528;40;10515;-59
2021/07/27 20:57:44;;;;;;;;;34.25;34.25;;;;;;;;8820949;40;10677;-58
2021/07/27 21:03:48;;;;;;;;;32.25;29.25;;;;;;;;8819963;40;10837;-58
2021/07/27 21:09:50;;;;;;;;;30.25;28.25;;;;;;;;8820145;40;11335;-58
2021/07/27 21:15:52;;;;;;;;;35.25;31.50;;;;;;;;8820184;40;10814;-57
2021/07/27 21:21:54;;;;;;;;;40.25;34.50;;;;;;;;8819046;40;10817;-59
2021/07/27 21:27:58;;;;;;;;;31.25;29.00;;;;;;;;8820562;40;10875;-57
2021/07/27 21:34:01;;;;;;;;;32.50;28.00;;;;;;;;8818502;40;10532;-57
2021/07/27 21:40:04;;;;;;;;;34.00;33.00;;;;;;;;8820953;40;10724;-58
2021/07/27 21:46:06;;;;;;;;;30.00;30.00;;;;;;;;8820521;40;10598;-58
2021/07/27 21:52:08;;;;;;;;;32.50;30.50;;;;;;;;8819476;40;10607;-58
2021/07/27 21:58:10;;;;;;;;;39.25;36.00;;;;;;;;8817738;40;10556;-57
2021/07/27 22:04:12;;;;;;;;;39.00;33.75;;;;;;;;8819815;40;10687;-58
2021/07/27 22:10:16;;;;;;;;;40.75;34.00;;;;;;;;8834737;40;10513;-58
2021/07/27 22:16:18;;;;;;;;;37.00;34.25;;;;;;;;8819628;40;10537;-58
2021/07/27 22:22:20;;;;;;;;;39.50;35.00;;;;;;;;8819626;40;10771;-58
2021/07/27 22:28:23;;;;;;;;;34.25;32.75;;;;;;;;8818995;40;10685;-57
2021/07/27 22:34:25;;;;;;;;;20.00;17.75;;;;;;;;8821308;40;10661;-58
2021/07/27 22:40:27;;;;;;;;;37.00;34.50;;;;;;;;8822463;40;10667;-58
2021/07/27 22:46:29;;;;;;;;;38.25;35.75;;;;;;;;8822458;40;10652;-58
2021/07/27 22:52:31;;;;;;;;;37.00;33.00;;;;;;;;8838591;40;10895;-57
2021/07/27 22:58:35;;;;;;;;;40.00;35.50;;;;;;;;8823565;40;10600;-57
2021/07/27 23:04:37;;;;;;;;;47.75;40.75;;;;;;;;8823529;40;10758;-58
2021/07/27 23:10:41;;;;;;;;;38.00;37.50;;;;;;;;8821002;40;11003;-58
2021/07/27 23:16:43;;;;;;;;;37.75;35.00;;;;;;;;8822195;40;10683;-58
2021/07/27 23:22:48;;;;;;;;;41.67;36.67;;;;;;;;8821850;40;11389;-59
2021/07/27 23:28:50;;;;;;;;;41.25;37.00;;;;;;;;8822870;40;10871;-57
2021/07/27 23:34:53;;;;;;;;;29.50;28.50;;;;;;;;8821570;40;10884;-57
2021/07/27 23:40:55;;;;;;;;;42.25;38.00;;;;;;;;8821549;40;11427;-56
2021/07/27 23:46:57;;;;;;;;;34.25;33.25;;;;;;;;8821324;40;11878;-58
2021/07/27 23:52:59;;;;;;;;;43.00;34.67;;;;;;;;8822447;40;10753;-58
2021/07/27 23:59:03;;;;;;;;;43.67;35.67;;;;;;;;8821824;40;10679;-58
